SYR344 GMAD-LPMA
Flight info
| Callsign | SYR344 |
|---|---|
| Flight time | N/A |
| Altitude | 36000 |
| Route | MOGBA DCT LEPRU DCT EKNOT |
| Aircraft | A320/M-SDE3FGHIRWY/LB1 |
Departure
| Time | 2026-04-25 14:49 |
|---|---|
| Airport | Al Massira Airport (GMAD) |
Arrival
| Time | N/A |
|---|---|
| Airport | Cristiano Ronaldo International Airport (LPMA) |
| Time | Latitude | Longitude | Altitude | Speed | Heading |
|---|---|---|---|---|---|
| 2026-04-25 14:23 | 30.32909 | -9.41104 | 235 ft | 0 kts | 312° |
| 2026-04-25 14:39 | 30.32904 | -9.41097 | 235 ft | 4 kts | 316° |
| 2026-04-25 14:40 | 30.32882 | -9.41081 | 239 ft | 4 kts | 352° |
| 2026-04-25 14:40 | 30.32857 | -9.41083 | 238 ft | 4 kts | 353° |
| 2026-04-25 14:40 | 30.32853 | -9.41092 | 237 ft | 1 kts | 272° |
| 2026-04-25 14:40 | 30.32853 | -9.41091 | 235 ft | 0 kts | 272° |
| 2026-04-25 14:42 | 30.32855 | -9.41154 | 234 ft | 11 kts | 272° |
| 2026-04-25 14:43 | 30.32858 | -9.41261 | 232 ft | 15 kts | 272° |
| 2026-04-25 14:43 | 30.32861 | -9.41383 | 230 ft | 12 kts | 271° |
| 2026-04-25 14:43 | 30.32861 | -9.41410 | 229 ft | 1 kts | 270° |
| 2026-04-25 14:43 | 30.32852 | -9.41424 | 229 ft | 6 kts | 236° |
| 2026-04-25 14:44 | 30.32788 | -9.41492 | 228 ft | 17 kts | 189° |
| 2026-04-25 14:44 | 30.32671 | -9.41505 | 228 ft | 17 kts | 183° |
| 2026-04-25 14:44 | 30.32551 | -9.41512 | 228 ft | 18 kts | 184° |
| 2026-04-25 14:44 | 30.32467 | -9.41440 | 229 ft | 16 kts | 110° |
| 2026-04-25 14:45 | 30.32456 | -9.41325 | 231 ft | 13 kts | 92° |
| 2026-04-25 14:45 | 30.32454 | -9.41235 | 233 ft | 10 kts | 91° |
| 2026-04-25 14:45 | 30.32452 | -9.41188 | 234 ft | 8 kts | 90° |
| 2026-04-25 14:45 | 30.32451 | -9.41122 | 235 ft | 4 kts | 92° |
| 2026-04-25 14:46 | 30.32450 | -9.41092 | 235 ft | 6 kts | 91° |
| 2026-04-25 14:46 | 30.32447 | -9.40998 | 237 ft | 17 kts | 91° |
| 2026-04-25 14:46 | 30.32441 | -9.40821 | 239 ft | 27 kts | 92° |
| 2026-04-25 14:46 | 30.32437 | -9.40567 | 243 ft | 35 kts | 92° |
| 2026-04-25 14:47 | 30.32432 | -9.40378 | 246 ft | 36 kts | 91° |
| 2026-04-25 14:47 | 30.32428 | -9.40186 | 249 ft | 35 kts | 92° |
| 2026-04-25 14:47 | 30.32419 | -9.39815 | 256 ft | 34 kts | 92° |
| 2026-04-25 14:47 | 30.32411 | -9.39566 | 260 ft | 23 kts | 96° |
| 2026-04-25 14:48 | 30.32310 | -9.39514 | 262 ft | 16 kts | 178° |
| 2026-04-25 14:48 | 30.32244 | -9.39626 | 262 ft | 37 kts | 257° |
| 2026-04-25 14:48 | 30.32236 | -9.40212 | 248 ft | 106 kts | 272° |
| 2026-04-25 14:48 | 30.32255 | -9.41280 | 238 ft | 157 kts | 271° |
| 2026-04-25 14:49 | 30.32308 | -9.42549 | 767 ft | 158 kts | 270° |
| 2026-04-25 14:49 | 30.32359 | -9.43854 | 1327 ft | 168 kts | 269° |
| 2026-04-25 14:49 | 30.32435 | -9.45317 | 1732 ft | 194 kts | 270° |
| 2026-04-25 14:49 | 30.32515 | -9.46951 | 2113 ft | 218 kts | 275° |
| 2026-04-25 14:50 | 30.32594 | -9.48820 | 2499 ft | 242 kts | 269° |
| 2026-04-25 14:50 | 30.32100 | -9.50714 | 3058 ft | 260 kts | 239° |
| 2026-04-25 14:50 | 30.30950 | -9.52385 | 3857 ft | 268 kts | 226° |
| 2026-04-25 14:50 | 30.29606 | -9.53894 | 4799 ft | 270 kts | 222° |
| 2026-04-25 14:51 | 30.28216 | -9.55368 | 5739 ft | 272 kts | 224° |
| 2026-04-25 14:51 | 30.27136 | -9.57181 | 6543 ft | 280 kts | 246° |
| 2026-04-25 14:51 | 30.26579 | -9.59360 | 7331 ft | 285 kts | 254° |
| 2026-04-25 14:51 | 30.26087 | -9.61601 | 8114 ft | 290 kts | 253° |
| 2026-04-25 14:52 | 30.25592 | -9.63882 | 8905 ft | 295 kts | 254° |
| 2026-04-25 14:52 | 30.25092 | -9.66200 | 9694 ft | 299 kts | 253° |
| 2026-04-25 14:52 | 30.24605 | -9.68571 | 10300 ft | 311 kts | 259° |
| 2026-04-25 14:52 | 30.24541 | -9.70269 | 10442 ft | 328 kts | 275° |
| 2026-04-25 14:53 | 30.25625 | -9.73672 | 10701 ft | 360 kts | 306° |
| 2026-04-25 14:53 | 30.27520 | -9.75665 | 10850 ft | 381 kts | 332° |
| 2026-04-25 14:53 | 30.30081 | -9.76645 | 10977 ft | 398 kts | 352° |
| 2026-04-25 14:53 | 30.32848 | -9.77227 | 11372 ft | 409 kts | 347° |
| 2026-04-25 14:54 | 30.35647 | -9.77919 | 11968 ft | 412 kts | 354° |
| 2026-04-25 14:54 | 30.38518 | -9.77960 | 12571 ft | 414 kts | 8° |
| 2026-04-25 14:54 | 30.41373 | -9.77505 | 13184 ft | 417 kts | 8° |
| 2026-04-25 14:54 | 30.44279 | -9.77203 | 13797 ft | 420 kts | 5° |
| 2026-04-25 14:55 | 30.47200 | -9.76913 | 14337 ft | 423 kts | 6° |
| 2026-04-25 14:55 | 30.50149 | -9.76950 | 14856 ft | 427 kts | 352° |
| 2026-04-25 14:55 | 30.53022 | -9.77845 | 15345 ft | 431 kts | 336° |
| 2026-04-25 14:55 | 30.55587 | -9.79643 | 15814 ft | 433 kts | 320° |
| 2026-04-25 14:56 | 30.57673 | -9.82149 | 15983 ft | 432 kts | 305° |
| 2026-04-25 14:56 | 30.59121 | -9.85132 | 16044 ft | 430 kts | 291° |
| 2026-04-25 14:56 | 30.60129 | -9.88397 | 16042 ft | 430 kts | 288° |
| 2026-04-25 14:56 | 30.61122 | -9.91666 | 16039 ft | 430 kts | 289° |
| 2026-04-25 14:57 | 30.62128 | -9.94941 | 16035 ft | 430 kts | 289° |
| 2026-04-25 14:57 | 30.63138 | -9.98210 | 16054 ft | 430 kts | 289° |
| 2026-04-25 14:57 | 30.64150 | -10.01486 | 16055 ft | 430 kts | 289° |
| 2026-04-25 14:57 | 30.65158 | -10.04755 | 16055 ft | 430 kts | 289° |
| 2026-04-25 14:58 | 30.66162 | -10.08024 | 16046 ft | 430 kts | 289° |
| 2026-04-25 14:58 | 30.67164 | -10.11288 | 16054 ft | 430 kts | 289° |
| 2026-04-25 14:58 | 30.68164 | -10.14561 | 16066 ft | 430 kts | 289° |
| 2026-04-25 14:58 | 30.69162 | -10.17842 | 16068 ft | 430 kts | 289° |
| 2026-04-25 14:59 | 30.70156 | -10.21115 | 16067 ft | 429 kts | 289° |
| 2026-04-25 14:59 | 30.71148 | -10.24382 | 16060 ft | 429 kts | 288° |
| 2026-04-25 14:59 | 30.72130 | -10.27617 | 16074 ft | 429 kts | 289° |
| 2026-04-25 14:59 | 30.73122 | -10.30887 | 16077 ft | 429 kts | 288° |
| 2026-04-25 15:00 | 30.74114 | -10.34159 | 16076 ft | 429 kts | 288° |
| 2026-04-25 15:00 | 30.75106 | -10.37433 | 16074 ft | 429 kts | 288° |
| 2026-04-25 15:00 | 30.76101 | -10.40708 | 16071 ft | 429 kts | 289° |
| 2026-04-25 15:00 | 30.77094 | -10.43980 | 16090 ft | 429 kts | 289° |
| 2026-04-25 15:01 | 30.78087 | -10.47252 | 16090 ft | 429 kts | 288° |
| 2026-04-25 15:01 | 30.78982 | -10.50209 | 16081 ft | 429 kts | 289° |
| 2026-04-25 15:01 | 30.79973 | -10.53487 | 16091 ft | 429 kts | 288° |
| 2026-04-25 15:01 | 30.80960 | -10.56758 | 16089 ft | 429 kts | 289° |
| 2026-04-25 15:02 | 30.81945 | -10.60033 | 16093 ft | 430 kts | 288° |
| 2026-04-25 15:02 | 30.82931 | -10.63322 | 16090 ft | 430 kts | 289° |
| 2026-04-25 15:02 | 30.83915 | -10.66611 | 16092 ft | 431 kts | 288° |
| 2026-04-25 15:02 | 30.84888 | -10.69868 | 16100 ft | 431 kts | 288° |
| 2026-04-25 15:03 | 30.85874 | -10.73162 | 16112 ft | 431 kts | 288° |
| 2026-04-25 15:03 | 30.86861 | -10.76455 | 16115 ft | 431 kts | 288° |
| 2026-04-25 15:03 | 30.87849 | -10.79746 | 16108 ft | 430 kts | 288° |
| 2026-04-25 15:03 | 30.88837 | -10.83036 | 16110 ft | 431 kts | 288° |
| 2026-04-25 15:04 | 30.89824 | -10.86327 | 16117 ft | 430 kts | 289° |
| 2026-04-25 15:04 | 30.90808 | -10.89616 | 16121 ft | 430 kts | 289° |
| 2026-04-25 15:04 | 30.91790 | -10.92912 | 16116 ft | 430 kts | 288° |
| 2026-04-25 15:04 | 30.92774 | -10.96214 | 16119 ft | 431 kts | 288° |
| 2026-04-25 15:05 | 30.93752 | -10.99508 | 16118 ft | 430 kts | 288° |
| 2026-04-25 15:05 | 30.94727 | -11.02803 | 16132 ft | 431 kts | 288° |
| 2026-04-25 15:05 | 30.95706 | -11.06107 | 16127 ft | 431 kts | 288° |
| 2026-04-25 15:06 | 30.97663 | -11.12704 | 16128 ft | 430 kts | 288° |
| 2026-04-25 15:06 | 30.98639 | -11.15999 | 16130 ft | 430 kts | 288° |
| 2026-04-25 15:06 | 30.99602 | -11.19260 | 16142 ft | 430 kts | 288° |
| 2026-04-25 15:06 | 31.00572 | -11.22549 | 16136 ft | 430 kts | 288° |
| 2026-04-25 15:07 | 31.01539 | -11.25843 | 16140 ft | 429 kts | 288° |
| 2026-04-25 15:07 | 31.02507 | -11.29139 | 16135 ft | 430 kts | 288° |
| 2026-04-25 15:07 | 31.03484 | -11.32454 | 16142 ft | 432 kts | 289° |
| 2026-04-25 15:07 | 31.04457 | -11.35760 | 16139 ft | 431 kts | 288° |
| 2026-04-25 15:08 | 31.05431 | -11.39074 | 16155 ft | 431 kts | 288° |
| 2026-04-25 15:08 | 31.06403 | -11.42386 | 16141 ft | 432 kts | 288° |
| 2026-04-25 15:08 | 31.07373 | -11.45696 | 16155 ft | 431 kts | 288° |
| 2026-04-25 15:08 | 31.08328 | -11.48959 | 16144 ft | 430 kts | 288° |
| 2026-04-25 15:09 | 31.09294 | -11.52274 | 16145 ft | 431 kts | 288° |
| 2026-04-25 15:09 | 31.10260 | -11.55590 | 16141 ft | 430 kts | 288° |
| 2026-04-25 15:09 | 31.12191 | -11.62202 | 16148 ft | 430 kts | 288° |
| 2026-04-25 15:10 | 31.13157 | -11.65515 | 16152 ft | 431 kts | 288° |
| 2026-04-25 15:10 | 31.14120 | -11.68826 | 16153 ft | 430 kts | 288° |
| 2026-04-25 15:10 | 31.16042 | -11.75449 | 16153 ft | 431 kts | 288° |
| 2026-04-25 15:11 | 31.17004 | -11.78775 | 16155 ft | 431 kts | 288° |
| 2026-04-25 15:11 | 31.17952 | -11.82045 | 16155 ft | 430 kts | 288° |
| 2026-04-25 15:11 | 31.18912 | -11.85355 | 16152 ft | 431 kts | 288° |
| 2026-04-25 15:12 | 31.20822 | -11.91981 | 16167 ft | 430 kts | 288° |
| 2026-04-25 15:12 | 31.21779 | -11.95299 | 16164 ft | 430 kts | 288° |
| 2026-04-25 15:12 | 31.22729 | -11.98605 | 16164 ft | 431 kts | 288° |
| 2026-04-25 15:12 | 31.23050 | -11.99724 | 16166 ft | 431 kts | 288° |
| 2026-04-25 15:13 | 31.24638 | -12.05257 | 16173 ft | 432 kts | 288° |
| 2026-04-25 15:13 | 31.28317 | -12.18119 | 16157 ft | 430 kts | 288° |
| 2026-04-25 15:13 | 31.32106 | -12.31400 | 16091 ft | 429 kts | 288° |
| 2026-04-25 15:14 | 31.35913 | -12.44796 | 16818 ft | 435 kts | 288° |
| 2026-04-25 15:14 | 31.39767 | -12.58435 | 18781 ft | 445 kts | 288° |
| 2026-04-25 15:14 | 31.43687 | -12.72311 | 20248 ft | 454 kts | 288° |
| 2026-04-25 15:14 | 31.47676 | -12.86514 | 21518 ft | 464 kts | 287° |
| 2026-04-25 15:15 | 31.51645 | -13.00817 | 22661 ft | 472 kts | 286° |
| 2026-04-25 15:15 | 31.55741 | -13.15592 | 23690 ft | 480 kts | 285° |
| 2026-04-25 15:15 | 31.59890 | -13.30556 | 24552 ft | 483 kts | 286° |
| 2026-04-25 15:15 | 31.64013 | -13.45602 | 25449 ft | 481 kts | 285° |
| 2026-04-25 15:16 | 31.68093 | -13.60514 | 26553 ft | 477 kts | 287° |
| 2026-04-25 15:16 | 31.72110 | -13.75290 | 27690 ft | 473 kts | 286° |
| 2026-04-25 15:16 | 31.79969 | -14.04461 | 30221 ft | 464 kts | 287° |
| 2026-04-25 15:17 | 31.87675 | -14.33317 | 32202 ft | 462 kts | 285° |
| 2026-04-25 15:17 | 31.91505 | -14.47753 | 33185 ft | 462 kts | 286° |
| 2026-04-25 15:17 | 31.95311 | -14.62197 | 34146 ft | 462 kts | 285° |
| 2026-04-25 15:18 | 31.99084 | -14.76556 | 35128 ft | 456 kts | 286° |
| 2026-04-25 15:18 | 32.03105 | -15.05434 | 36246 ft | 448 kts | 277° |